sensor_id;sensor_type;location;lat;lon;timestamp;pressure;altitude;pressure_sealevel;temperature;humidity
28628;BME280;15815;46.760;19.604;2023-04-25T00:01:32;99255.06;;;13.45;97.12
28628;BME280;15815;46.760;19.604;2023-04-25T00:03:57;99261.13;;;13.30;99.01
28628;BME280;15815;46.760;19.604;2023-04-25T00:06:24;99270.63;;;13.37;99.62
28628;BME280;15815;46.760;19.604;2023-04-25T00:08:49;99244.09;;;13.34;97.98
28628;BME280;15815;46.760;19.604;2023-04-25T00:11:15;99240.38;;;13.37;97.08
28628;BME280;15815;46.760;19.604;2023-04-25T00:13:41;99255.06;;;13.45;98.01
28628;BME280;15815;46.760;19.604;2023-04-25T00:16:07;99242.41;;;13.37;97.27
28628;BME280;15815;46.760;19.604;2023-04-25T00:18:32;99233.25;;;13.33;97.11
28628;BME280;15815;46.760;19.604;2023-04-25T00:20:59;99236.63;;;13.27;98.10
28628;BME280;15815;46.760;19.604;2023-04-25T00:23:24;99256.84;;;13.39;98.35
28628;BME280;15815;46.760;19.604;2023-04-25T00:25:50;99234.72;;;13.24;98.84
28628;BME280;15815;46.760;19.604;2023-04-25T00:28:16;99248.47;;;13.22;99.74
28628;BME280;15815;46.760;19.604;2023-04-25T00:30:42;99245.09;;;13.27;98.26
28628;BME280;15815;46.760;19.604;2023-04-25T00:33:09;99241.19;;;13.09;100.00
28628;BME280;15815;46.760;19.604;2023-04-25T00:35:35;99229.47;;;13.10;98.71
28628;BME280;15815;46.760;19.604;2023-04-25T00:38:01;99229.28;;;13.17;98.73
28628;BME280;15815;46.760;19.604;2023-04-25T00:40:28;99240.59;;;13.17;98.01
28628;BME280;15815;46.760;19.604;2023-04-25T00:42:53;99223.25;;;13.03;99.13
28628;BME280;15815;46.760;19.604;2023-04-25T00:45:19;99237.38;;;13.15;97.67
28628;BME280;15815;46.760;19.604;2023-04-25T00:47:46;99224.59;;;12.98;98.57
28628;BME280;15815;46.760;19.604;2023-04-25T00:50:12;99218.59;;;12.96;98.54
28628;BME280;15815;46.760;19.604;2023-04-25T00:52:38;99231.94;;;13.08;97.93
28628;BME280;15815;46.760;19.604;2023-04-25T00:55:05;99221.09;;;12.94;98.23
28628;BME280;15815;46.760;19.604;2023-04-25T00:57:31;99237.00;;;13.00;97.53
28628;BME280;15815;46.760;19.604;2023-04-25T00:59:57;99224.25;;;12.96;96.46
28628;BME280;15815;46.760;19.604;2023-04-25T01:02:23;99243.22;;;13.08;97.13
28628;BME280;15815;46.760;19.604;2023-04-25T01:04:51;99225.59;;;12.91;98.11
28628;BME280;15815;46.760;19.604;2023-04-25T01:07:18;99241.84;;;13.00;97.87
28628;BME280;15815;46.760;19.604;2023-04-25T01:09:44;99230.00;;;12.92;96.92
28628;BME280;15815;46.760;19.604;2023-04-25T01:12:10;99227.69;;;12.87;97.82
28628;BME280;15815;46.760;19.604;2023-04-25T01:14:36;99223.75;;;12.85;96.94
28628;BME280;15815;46.760;19.604;2023-04-25T01:17:02;99218.81;;;12.89;96.80
28628;BME280;15815;46.760;19.604;2023-04-25T01:19:27;99223.06;;;12.81;97.74
28628;BME280;15815;46.760;19.604;2023-04-25T01:21:53;99234.56;;;12.86;98.14
28628;BME280;15815;46.760;19.604;2023-04-25T01:24:19;99245.78;;;12.90;97.28
28628;BME280;15815;46.760;19.604;2023-04-25T01:26:44;99226.31;;;12.79;98.04
28628;BME280;15815;46.760;19.604;2023-04-25T01:29:10;99245.44;;;12.88;98.17
28628;BME280;15815;46.760;19.604;2023-04-25T01:31:37;99227.66;;;12.75;98.09
28628;BME280;15815;46.760;19.604;2023-04-25T01:34:03;99224.28;;;12.80;96.91
28628;BME280;15815;46.760;19.604;2023-04-25T01:36:28;99216.94;;;12.69;97.69
28628;BME280;15815;46.760;19.604;2023-04-25T01:38:54;99247.88;;;12.86;97.70
28628;BME280;15815;46.760;19.604;2023-04-25T01:41:21;99212.53;;;12.68;97.21
28628;BME280;15815;46.760;19.604;2023-04-25T01:43:46;99219.75;;;12.69;97.08
28628;BME280;15815;46.760;19.604;2023-04-25T01:46:12;99214.91;;;12.70;96.92
28628;BME280;15815;46.760;19.604;2023-04-25T01:48:38;99220.22;;;12.68;97.31
28628;BME280;15815;46.760;19.604;2023-04-25T01:51:03;99211.06;;;12.64;96.60
28628;BME280;15815;46.760;19.604;2023-04-25T01:53:29;99228.91;;;12.74;96.97
28628;BME280;15815;46.760;19.604;2023-04-25T01:55:55;99212.91;;;12.54;97.64
28628;BME280;15815;46.760;19.604;2023-04-25T01:58:20;99198.25;;;12.47;97.01
28628;BME280;15815;46.760;19.604;2023-04-25T02:00:46;99195.88;;;12.45;97.90
28628;BME280;15815;46.760;19.604;2023-04-25T02:03:12;99192.16;;;12.48;97.74
28628;BME280;15815;46.760;19.604;2023-04-25T02:05:38;99210.09;;;12.54;97.64
28628;BME280;15815;46.760;19.604;2023-04-25T02:08:05;99171.25;;;12.33;97.93
28628;BME280;15815;46.760;19.604;2023-04-25T02:10:31;99195.88;;;12.45;98.10
28628;BME280;15815;46.760;19.604;2023-04-25T02:12:57;99175.66;;;12.34;98.46
28628;BME280;15815;46.760;19.604;2023-04-25T02:15:23;99167.22;;;12.34;97.94
28628;BME280;15815;46.760;19.604;2023-04-25T02:17:48;99153.50;;;12.20;97.74
28628;BME280;15815;46.760;19.604;2023-04-25T02:20:17;99168.63;;;12.26;97.55
28628;BME280;15815;46.760;19.604;2023-04-25T02:22:42;99164.41;;;12.18;97.84
28628;BME280;15815;46.760;19.604;2023-04-25T02:25:08;99155.63;;;11.99;98.96
28628;BME280;15815;46.760;19.604;2023-04-25T02:27:37;99164.78;;;12.03;97.95
28628;BME280;15815;46.760;19.604;2023-04-25T02:30:04;99188.19;;;12.17;97.44
28628;BME280;15815;46.760;19.604;2023-04-25T02:32:30;99180.72;;;12.10;98.30
28628;BME280;15815;46.760;19.604;2023-04-25T02:34:56;99187.84;;;12.15;98.31
28628;BME280;15815;46.760;19.604;2023-04-25T02:37:21;99164.28;;;11.92;98.79
28628;BME280;15815;46.760;19.604;2023-04-25T02:39:47;99171.75;;;11.99;98.65
28628;BME280;15815;46.760;19.604;2023-04-25T02:42:12;99172.00;;;12.04;98.15
28628;BME280;15815;46.760;19.604;2023-04-25T02:44:38;99172.09;;;12.01;98.13
28628;BME280;15815;46.760;19.604;2023-04-25T02:47:03;99176.94;;;12.00;98.58
28628;BME280;15815;46.760;19.604;2023-04-25T02:49:29;99182.75;;;12.10;97.86
28628;BME280;15815;46.760;19.604;2023-04-25T02:51:54;99190.31;;;12.13;97.79
28628;BME280;15815;46.760;19.604;2023-04-25T02:54:23;99159.53;;;11.89;97.73
28628;BME280;15815;46.760;19.604;2023-04-25T02:56:48;99188.53;;;12.19;97.34
28628;BME280;15815;46.760;19.604;2023-04-25T02:59:14;99175.78;;;11.98;98.79
28628;BME280;15815;46.760;19.604;2023-04-25T03:01:39;99182.47;;;12.04;98.10
28628;BME280;15815;46.760;19.604;2023-04-25T03:04:06;99185.56;;;12.10;97.70
28628;BME280;15815;46.760;19.604;2023-04-25T03:06:32;99185.47;;;12.13;97.11
28628;BME280;15815;46.760;19.604;2023-04-25T03:08:57;99198.31;;;12.14;97.14
28628;BME280;15815;46.760;19.604;2023-04-25T03:11:25;99167.00;;;11.96;97.42
28628;BME280;15815;46.760;19.604;2023-04-25T03:13:50;99172.19;;;11.97;97.58
28628;BME280;15815;46.760;19.604;2023-04-25T03:16:16;99186.44;;;12.06;97.51
28628;BME280;15815;46.760;19.604;2023-04-25T03:18:41;99174.47;;;12.02;97.47
28628;BME280;15815;46.760;19.604;2023-04-25T03:21:08;99170.16;;;11.98;96.87
28628;BME280;15815;46.760;19.604;2023-04-25T03:23:34;99196.72;;;12.13;97.07
28628;BME280;15815;46.760;19.604;2023-04-25T03:26:00;99180.88;;;12.03;96.80
28628;BME280;15815;46.760;19.604;2023-04-25T03:28:26;99176.31;;;11.93;97.60
28628;BME280;15815;46.760;19.604;2023-04-25T03:30:52;99176.53;;;11.86;97.97
28628;BME280;15815;46.760;19.604;2023-04-25T03:33:18;99169.44;;;11.77;98.73
28628;BME280;15815;46.760;19.604;2023-04-25T03:35:43;99187.25;;;11.91;97.67
28628;BME280;15815;46.760;19.604;2023-04-25T03:38:09;99176.06;;;11.87;97.42
28628;BME280;15815;46.760;19.604;2023-04-25T03:40:37;99179.69;;;11.88;97.04
28628;BME280;15815;46.760;19.604;2023-04-25T03:43:03;99168.47;;;11.68;97.63
28628;BME280;15815;46.760;19.604;2023-04-25T03:45:29;99185.41;;;11.84;97.30
28628;BME280;15815;46.760;19.604;2023-04-25T03:47:54;99173.47;;;11.76;97.09
28628;BME280;15815;46.760;19.604;2023-04-25T03:50:20;99183.94;;;11.76;96.91
28628;BME280;15815;46.760;19.604;2023-04-25T03:52:45;99183.50;;;11.77;96.98
28628;BME280;15815;46.760;19.604;2023-04-25T03:55:14;99176.03;;;11.71;96.96
28628;BME280;15815;46.760;19.604;2023-04-25T03:57:39;99193.97;;;11.77;97.37
28628;BME280;15815;46.760;19.604;2023-04-25T04:00:05;99209.50;;;11.85;96.96
28628;BME280;15815;46.760;19.604;2023-04-25T04:02:31;99190.03;;;11.74;96.59
28628;BME280;15815;46.760;19.604;2023-04-25T04:04:57;99189.56;;;11.76;95.95
28628;BME280;15815;46.760;19.604;2023-04-25T04:07:23;99224.63;;;11.91;95.71
28628;BME280;15815;46.760;19.604;2023-04-25T04:09:49;99189.06;;;11.65;96.12
28628;BME280;15815;46.760;19.604;2023-04-25T04:12:23;99207.34;;;11.73;95.80
28628;BME280;15815;46.760;19.604;2023-04-25T04:14:49;99219.31;;;11.77;96.02
28628;BME280;15815;46.760;19.604;2023-04-25T04:17:16;99202.00;;;11.62;96.03
28628;BME280;15815;46.760;19.604;2023-04-25T04:19:41;99225.91;;;11.70;96.10
28628;BME280;15815;46.760;19.604;2023-04-25T04:22:07;99216.41;;;11.64;95.81
28628;BME280;15815;46.760;19.604;2023-04-25T04:24:35;99235.81;;;11.79;95.58
28628;BME280;15815;46.760;19.604;2023-04-25T04:27:01;99224.94;;;11.77;95.01
28628;BME280;15815;46.760;19.604;2023-04-25T04:29:26;99220.38;;;11.67;94.60
28628;BME280;15815;46.760;19.604;2023-04-25T04:31:52;99241.56;;;11.71;94.83
28628;BME280;15815;46.760;19.604;2023-04-25T04:34:21;99221.06;;;11.55;94.95
28628;BME280;15815;46.760;19.604;2023-04-25T04:36:46;99209.38;;;11.56;94.82
28628;BME280;15815;46.760;19.604;2023-04-25T04:39:12;99248.84;;;11.89;94.07
28628;BME280;15815;46.760;19.604;2023-04-25T04:41:38;99251.50;;;11.76;94.24
28628;BME280;15815;46.760;19.604;2023-04-25T04:44:04;99232.16;;;11.62;95.02
28628;BME280;15815;46.760;19.604;2023-04-25T04:46:29;99226.34;;;11.53;94.61
28628;BME280;15815;46.760;19.604;2023-04-25T04:48:58;99245.44;;;11.61;94.32
28628;BME280;15815;46.760;19.604;2023-04-25T04:51:25;99236.03;;;11.52;94.27
28628;BME280;15815;46.760;19.604;2023-04-25T04:53:51;99239.19;;;11.54;94.55
28628;BME280;15815;46.760;19.604;2023-04-25T04:56:17;99250.09;;;11.52;94.50
28628;BME280;15815;46.760;19.604;2023-04-25T04:58:43;99248.91;;;11.49;94.29
28628;BME280;15815;46.760;19.604;2023-04-25T05:01:09;99256.50;;;11.52;93.88
28628;BME280;15815;46.760;19.604;2023-04-25T05:03:37;99248.38;;;11.38;93.97
28628;BME280;15815;46.760;19.604;2023-04-25T05:06:03;99256.22;;;11.46;93.84
28628;BME280;15815;46.760;19.604;2023-04-25T05:08:28;99242.84;;;11.34;94.26
28628;BME280;15815;46.760;19.604;2023-04-25T05:10:55;99243.09;;;11.40;93.92
28628;BME280;15815;46.760;19.604;2023-04-25T05:13:20;99267.16;;;11.61;93.82
28628;BME280;15815;46.760;19.604;2023-04-25T05:15:46;99260.25;;;11.45;94.41
28628;BME280;15815;46.760;19.604;2023-04-25T05:18:12;99263.84;;;11.46;94.51
28628;BME280;15815;46.760;19.604;2023-04-25T05:20:37;99268.34;;;11.43;94.06
28628;BME280;15815;46.760;19.604;2023-04-25T05:23:03;99278.22;;;11.52;94.27
28628;BME280;15815;46.760;19.604;2023-04-25T05:25:30;99265.31;;;11.54;94.28
28628;BME280;15815;46.760;19.604;2023-04-25T05:27:56;99263.38;;;11.51;94.30
28628;BME280;15815;46.760;19.604;2023-04-25T05:30:21;99244.34;;;11.39;94.84
28628;BME280;15815;46.760;19.604;2023-04-25T05:32:47;99243.19;;;11.36;94.64
28628;BME280;15815;46.760;19.604;2023-04-25T05:35:12;99250.94;;;11.49;94.77
28628;BME280;15815;46.760;19.604;2023-04-25T05:37:38;99259.03;;;11.46;94.93
28628;BME280;15815;46.760;19.604;2023-04-25T05:40:05;99281.06;;;11.68;94.43
28628;BME280;15815;46.760;19.604;2023-04-25T05:42:32;99259.06;;;11.63;94.27
28628;BME280;15815;46.760;19.604;2023-04-25T05:44:57;99274.47;;;11.74;94.59
28628;BME280;15815;46.760;19.604;2023-04-25T05:47:23;99268.56;;;11.69;93.61
28628;BME280;15815;46.760;19.604;2023-04-25T05:49:48;99262.06;;;11.72;93.79
28628;BME280;15815;46.760;19.604;2023-04-25T05:52:14;99263.72;;;11.69;93.75
28628;BME280;15815;46.760;19.604;2023-04-25T05:54:39;99253.25;;;11.70;93.89
28628;BME280;15815;46.760;19.604;2023-04-25T05:57:08;99269.16;;;11.80;94.12
28628;BME280;15815;46.760;19.604;2023-04-25T05:59:34;99257.63;;;11.91;93.11
28628;BME280;15815;46.760;19.604;2023-04-25T06:01:59;99275.84;;;12.02;93.45
28628;BME280;15815;46.760;19.604;2023-04-25T06:04:28;99263.09;;;11.98;93.65
28628;BME280;15815;46.760;19.604;2023-04-25T06:06:53;99281.13;;;12.17;94.22
28628;BME280;15815;46.760;19.604;2023-04-25T06:09:19;99273.22;;;12.12;93.25
28628;BME280;15815;46.760;19.604;2023-04-25T06:11:45;99289.06;;;12.22;92.82
28628;BME280;15815;46.760;19.604;2023-04-25T06:14:11;99287.66;;;12.14;93.08
28628;BME280;15815;46.760;19.604;2023-04-25T06:16:36;99274.16;;;12.05;92.32
28628;BME280;15815;46.760;19.604;2023-04-25T06:19:03;99300.69;;;12.07;93.09
28628;BME280;15815;46.760;19.604;2023-04-25T06:21:28;99290.81;;;11.99;92.87
28628;BME280;15815;46.760;19.604;2023-04-25T06:23:54;99281.47;;;11.86;93.00
28628;BME280;15815;46.760;19.604;2023-04-25T06:26:19;99296.09;;;11.81;93.04
28628;BME280;15815;46.760;19.604;2023-04-25T06:28:45;99284.66;;;11.88;93.05
28628;BME280;15815;46.760;19.604;2023-04-25T06:31:10;99290.22;;;11.72;92.97
28628;BME280;15815;46.760;19.604;2023-04-25T06:33:36;99301.19;;;11.86;93.42
28628;BME280;15815;46.760;19.604;2023-04-25T06:36:02;99300.22;;;11.93;92.99
28628;BME280;15815;46.760;19.604;2023-04-25T06:38:28;99288.16;;;11.92;92.65
28628;BME280;15815;46.760;19.604;2023-04-25T06:40:53;99296.16;;;11.94;92.51
28628;BME280;15815;46.760;19.604;2023-04-25T06:43:19;99292.22;;;11.91;92.74
28628;BME280;15815;46.760;19.604;2023-04-25T06:45:45;99293.47;;;12.06;92.39
28628;BME280;15815;46.760;19.604;2023-04-25T06:48:10;99274.88;;;11.93;92.40
28628;BME280;15815;46.760;19.604;2023-04-25T06:50:36;99303.16;;;12.05;92.74
28628;BME280;15815;46.760;19.604;2023-04-25T06:53:01;99299.72;;;12.14;93.17
28628;BME280;15815;46.760;19.604;2023-04-25T06:55:27;99300.22;;;12.25;92.60
28628;BME280;15815;46.760;19.604;2023-04-25T06:57:52;99314.31;;;12.42;92.87
28628;BME280;15815;46.760;19.604;2023-04-25T07:00:18;99299.25;;;12.32;92.61
28628;BME280;15815;46.760;19.604;2023-04-25T07:02:44;99288.25;;;12.37;93.05
28628;BME280;15815;46.760;19.604;2023-04-25T07:05:09;99290.44;;;12.46;92.38
28628;BME280;15815;46.760;19.604;2023-04-25T07:07:35;99319.03;;;12.77;92.56
28628;BME280;15815;46.760;19.604;2023-04-25T07:10:02;99287.75;;;12.72;93.04
28628;BME280;15815;46.760;19.604;2023-04-25T07:12:27;99301.19;;;13.25;92.57
28628;BME280;15815;46.760;19.604;2023-04-25T07:14:54;99284.66;;;13.53;91.52
28628;BME280;15815;46.760;19.604;2023-04-25T07:17:19;99320.81;;;13.83;91.45
28628;BME280;15815;46.760;19.604;2023-04-25T07:19:46;99289.19;;;14.14;89.95
28628;BME280;15815;46.760;19.604;2023-04-25T07:22:11;99293.47;;;14.31;90.11
28628;BME280;15815;46.760;19.604;2023-04-25T07:24:37;99285.47;;;15.21;86.11
28628;BME280;15815;46.760;19.604;2023-04-25T07:27:02;99277.91;;;15.61;87.02
28628;BME280;15815;46.760;19.604;2023-04-25T07:29:29;99287.22;;;16.02;87.01
28628;BME280;15815;46.760;19.604;2023-04-25T07:31:56;99285.28;;;15.90;83.47
28628;BME280;15815;46.760;19.604;2023-04-25T07:34:22;99272.78;;;15.78;81.27
28628;BME280;15815;46.760;19.604;2023-04-25T07:36:48;99275.84;;;15.93;79.96
28628;BME280;15815;46.760;19.604;2023-04-25T07:39:14;99287.78;;;15.88;78.90
28628;BME280;15815;46.760;19.604;2023-04-25T07:41:40;99278.34;;;16.40;77.88
28628;BME280;15815;46.760;19.604;2023-04-25T07:44:07;99279.06;;;16.99;78.23
28628;BME280;15815;46.760;19.604;2023-04-25T07:46:32;99285.50;;;17.36;72.28
28628;BME280;15815;46.760;19.604;2023-04-25T07:48:58;99295.78;;;17.15;74.54
28628;BME280;15815;46.760;19.604;2023-04-25T07:51:24;99290.88;;;17.34;73.75
28628;BME280;15815;46.760;19.604;2023-04-25T07:53:49;99274.34;;;17.84;72.17
28628;BME280;15815;46.760;19.604;2023-04-25T07:56:15;99269.00;;;17.77;70.57
28628;BME280;15815;46.760;19.604;2023-04-25T07:58:44;99270.75;;;18.88;69.00
28628;BME280;15815;46.760;19.604;2023-04-25T08:01:09;99267.22;;;19.47;68.17
28628;BME280;15815;46.760;19.604;2023-04-25T08:03:40;99282.25;;;20.41;65.54
28628;BME280;15815;46.760;19.604;2023-04-25T08:06:05;99262.81;;;19.75;65.12
28628;BME280;15815;46.760;19.604;2023-04-25T08:08:31;99273.13;;;19.58;62.63
28628;BME280;15815;46.760;19.604;2023-04-25T08:10:56;99287.94;;;19.32;60.78
28628;BME280;15815;46.760;19.604;2023-04-25T08:13:22;99276.78;;;19.05;59.75
28628;BME280;15815;46.760;19.604;2023-04-25T08:15:47;99263.25;;;19.14;58.90
28628;BME280;15815;46.760;19.604;2023-04-25T08:18:13;99279.41;;;20.26;58.67
28628;BME280;15815;46.760;19.604;2023-04-25T08:20:42;99261.28;;;21.25;54.29
28628;BME280;15815;46.760;19.604;2023-04-25T08:23:07;99275.66;;;20.35;56.98
28628;BME280;15815;46.760;19.604;2023-04-25T08:25:33;99266.56;;;20.51;57.28
28628;BME280;15815;46.760;19.604;2023-04-25T08:27:59;99270.03;;;21.42;54.33
28628;BME280;15815;46.760;19.604;2023-04-25T08:30:24;99259.59;;;21.39;54.31
28628;BME280;15815;46.760;19.604;2023-04-25T08:32:50;99282.56;;;21.04;55.59
28628;BME280;15815;46.760;19.604;2023-04-25T08:35:15;99265.00;;;20.91;54.52
28628;BME280;15815;46.760;19.604;2023-04-25T08:37:41;99259.44;;;21.48;52.54
28628;BME280;15815;46.760;19.604;2023-04-25T08:40:11;99286.91;;;22.29;52.41
28628;BME280;15815;46.760;19.604;2023-04-25T08:42:37;99279.53;;;21.59;52.87
28628;BME280;15815;46.760;19.604;2023-04-25T08:45:03;99280.56;;;20.90;52.55
28628;BME280;15815;46.760;19.604;2023-04-25T08:47:29;99287.41;;;22.28;50.71
28628;BME280;15815;46.760;19.604;2023-04-25T08:49:59;99281.25;;;22.46;49.90
28628;BME280;15815;46.760;19.604;2023-04-25T08:52:27;99264.94;;;22.58;49.54
28628;BME280;15815;46.760;19.604;2023-04-25T08:54:56;99276.53;;;23.62;48.93
28628;BME280;15815;46.760;19.604;2023-04-25T08:57:25;99274.44;;;23.68;48.45
28628;BME280;15815;46.760;19.604;2023-04-25T08:59:52;99280.19;;;23.62;47.58
28628;BME280;15815;46.760;19.604;2023-04-25T09:02:18;99282.16;;;22.69;47.61
28628;BME280;15815;46.760;19.604;2023-04-25T09:04:44;99285.59;;;22.30;48.23
28628;BME280;15815;46.760;19.604;2023-04-25T09:07:09;99279.81;;;22.19;48.69
28628;BME280;15815;46.760;19.604;2023-04-25T09:09:35;99286.78;;;22.49;48.63
28628;BME280;15815;46.760;19.604;2023-04-25T09:12:01;99303.75;;;23.12;47.96
28628;BME280;15815;46.760;19.604;2023-04-25T09:14:27;99295.06;;;23.78;47.85
28628;BME280;15815;46.760;19.604;2023-04-25T09:19:26;99307.47;;;22.02;47.27
28628;BME280;15815;46.760;19.604;2023-04-25T09:21:58;99306.47;;;22.05;47.26
28628;BME280;15815;46.760;19.604;2023-04-25T09:27:06;99292.91;;;22.79;47.47
28628;BME280;15815;46.760;19.604;2023-04-25T09:29:36;99298.63;;;22.74;47.91
28628;BME280;15815;46.760;19.604;2023-04-25T09:32:21;99292.78;;;22.51;47.18
28628;BME280;15815;46.760;19.604;2023-04-25T09:34:52;99292.41;;;22.38;46.42
28628;BME280;15815;46.760;19.604;2023-04-25T09:37:29;99288.34;;;22.13;47.18
28628;BME280;15815;46.760;19.604;2023-04-25T09:39:59;99302.13;;;22.15;46.50
28628;BME280;15815;46.760;19.604;2023-04-25T09:42:27;99302.38;;;22.48;47.05
28628;BME280;15815;46.760;19.604;2023-04-25T09:44:54;99292.38;;;23.46;46.02
28628;BME280;15815;46.760;19.604;2023-04-25T09:47:20;99300.63;;;23.10;46.77
28628;BME280;15815;46.760;19.604;2023-04-25T09:49:46;99295.66;;;21.88;47.29
28628;BME280;15815;46.760;19.604;2023-04-25T09:52:22;99310.22;;;21.90;47.16
28628;BME280;15815;46.760;19.604;2023-04-25T09:54:53;99282.94;;;23.18;46.29
28628;BME280;15815;46.760;19.604;2023-04-25T09:57:25;99288.19;;;23.36;44.34
28628;BME280;15815;46.760;19.604;2023-04-25T09:59:52;99271.25;;;23.49;45.52
28628;BME280;15815;46.760;19.604;2023-04-25T10:02:24;99290.22;;;22.65;45.77
28628;BME280;15815;46.760;19.604;2023-04-25T10:04:54;99304.97;;;22.46;44.93
28628;BME280;15815;46.760;19.604;2023-04-25T10:07:25;99296.97;;;22.19;46.55
28628;BME280;15815;46.760;19.604;2023-04-25T10:10:00;99308.88;;;22.49;45.66
28628;BME280;15815;46.760;19.604;2023-04-25T10:12:28;99291.81;;;22.71;45.77
28628;BME280;15815;46.760;19.604;2023-04-25T10:14:54;99306.56;;;22.16;45.42
28628;BME280;15815;46.760;19.604;2023-04-25T10:17:20;99276.53;;;21.43;46.24
28628;BME280;15815;46.760;19.604;2023-04-25T10:19:50;99297.16;;;21.52;44.47
28628;BME280;15815;46.760;19.604;2023-04-25T10:22:42;99313.63;;;21.37;47.08
28628;BME280;15815;46.760;19.604;2023-04-25T10:25:09;99295.38;;;21.86;46.90
28628;BME280;15815;46.760;19.604;2023-04-25T10:27:35;99292.53;;;22.18;46.83
28628;BME280;15815;46.760;19.604;2023-04-25T10:30:06;99307.81;;;22.09;46.75
28628;BME280;15815;46.760;19.604;2023-04-25T10:32:33;99291.66;;;21.49;47.27
28628;BME280;15815;46.760;19.604;2023-04-25T10:35:19;99310.44;;;21.09;46.53
28628;BME280;15815;46.760;19.604;2023-04-25T10:38:00;99310.75;;;20.76;45.93
28628;BME280;15815;46.760;19.604;2023-04-25T10:40:30;99316.16;;;20.54;47.17
28628;BME280;15815;46.760;19.604;2023-04-25T10:42:55;99290.31;;;19.93;47.81
28628;BME280;15815;46.760;19.604;2023-04-25T10:45:51;99299.75;;;19.84;49.26
28628;BME280;15815;46.760;19.604;2023-04-25T10:48:29;99301.72;;;19.49;49.64
28628;BME280;15815;46.760;19.604;2023-04-25T10:51:08;99322.16;;;19.62;49.49
28628;BME280;15815;46.760;19.604;2023-04-25T10:53:34;99303.78;;;19.48;50.10
28628;BME280;15815;46.760;19.604;2023-04-25T10:56:00;99299.88;;;19.75;49.40
28628;BME280;15815;46.760;19.604;2023-04-25T10:58:26;99303.97;;;19.89;49.02
28628;BME280;15815;46.760;19.604;2023-04-25T11:00:52;99313.41;;;19.95;49.50
28628;BME280;15815;46.760;19.604;2023-04-25T11:03:21;99318.81;;;19.93;50.14
28628;BME280;15815;46.760;19.604;2023-04-25T11:05:48;99323.13;;;20.18;49.67
28628;BME280;15815;46.760;19.604;2023-04-25T11:08:24;99294.59;;;20.18;48.35
28628;BME280;15815;46.760;19.604;2023-04-25T11:10:55;99322.03;;;20.15;49.07
28628;BME280;15815;46.760;19.604;2023-04-25T11:13:20;99321.88;;;20.04;49.14
28628;BME280;15815;46.760;19.604;2023-04-25T11:15:51;99313.94;;;19.79;49.20
28628;BME280;15815;46.760;19.604;2023-04-25T11:18:17;99304.00;;;19.74;49.46
28628;BME280;15815;46.760;19.604;2023-04-25T11:20:43;99317.53;;;19.94;48.78
28628;BME280;15815;46.760;19.604;2023-04-25T11:23:12;99309.00;;;19.64;49.55
28628;BME280;15815;46.760;19.604;2023-04-25T11:25:38;99314.69;;;19.64;49.93
28628;BME280;15815;46.760;19.604;2023-04-25T11:28:03;99307.88;;;19.32;50.39
28628;BME280;15815;46.760;19.604;2023-04-25T11:30:29;99322.50;;;19.25;50.52
28628;BME280;15815;46.760;19.604;2023-04-25T11:32:54;99338.75;;;19.10;50.35
28628;BME280;15815;46.760;19.604;2023-04-25T11:35:20;99311.34;;;18.98;51.00
28628;BME280;15815;46.760;19.604;2023-04-25T11:37:46;99311.66;;;19.14;50.64
28628;BME280;15815;46.760;19.604;2023-04-25T11:40:12;99319.63;;;19.64;50.20
28628;BME280;15815;46.760;19.604;2023-04-25T11:42:47;99322.53;;;20.14;50.19
28628;BME280;15815;46.760;19.604;2023-04-25T11:45:13;99306.00;;;20.18;50.39
28628;BME280;15815;46.760;19.604;2023-04-25T11:47:39;99314.41;;;20.56;49.12
28628;BME280;15815;46.760;19.604;2023-04-25T11:50:07;99310.25;;;20.78;48.81
28628;BME280;15815;46.760;19.604;2023-04-25T11:52:44;99293.41;;;20.80;48.86
28628;BME280;15815;46.760;19.604;2023-04-25T11:55:18;99317.13;;;21.26;49.00
28628;BME280;15815;46.760;19.604;2023-04-25T11:57:45;99319.19;;;21.06;47.72
28628;BME280;15815;46.760;19.604;2023-04-25T12:00:17;99328.47;;;20.60;46.18
28628;BME280;15815;46.760;19.604;2023-04-25T12:02:52;99312.88;;;20.41;46.75
28628;BME280;15815;46.760;19.604;2023-04-25T12:05:29;99322.63;;;20.89;47.46
28628;BME280;15815;46.760;19.604;2023-04-25T12:07:56;99303.06;;;20.82;46.58
28628;BME280;15815;46.760;19.604;2023-04-25T12:10:24;99319.22;;;20.85;47.00
28628;BME280;15815;46.760;19.604;2023-04-25T12:12:49;99319.75;;;20.69;46.45
28628;BME280;15815;46.760;19.604;2023-04-25T12:15:25;99305.09;;;20.41;46.86
28628;BME280;15815;46.760;19.604;2023-04-25T12:17:53;99315.69;;;20.05;46.23
28628;BME280;15815;46.760;19.604;2023-04-25T12:20:24;99323.94;;;19.59;46.97
28628;BME280;15815;46.760;19.604;2023-04-25T12:22:51;99312.88;;;19.37;47.41
28628;BME280;15815;46.760;19.604;2023-04-25T12:25:36;99310.31;;;19.39;47.94
28628;BME280;15815;46.760;19.604;2023-04-25T12:28:31;99325.72;;;19.86;47.73
28628;BME280;15815;46.760;19.604;2023-04-25T12:31:01;99309.28;;;19.66;47.40
28628;BME280;15815;46.760;19.604;2023-04-25T12:33:37;99299.28;;;19.86;47.65
28628;BME280;15815;46.760;19.604;2023-04-25T12:36:06;99304.28;;;19.91;47.97
28628;BME280;15815;46.760;19.604;2023-04-25T12:38:36;99308.41;;;19.90;47.69
28628;BME280;15815;46.760;19.604;2023-04-25T12:41:02;99278.13;;;19.63;48.26
28628;BME280;15815;46.760;19.604;2023-04-25T12:43:28;99280.88;;;19.87;48.68
28628;BME280;15815;46.760;19.604;2023-04-25T12:45:55;99287.94;;;20.06;48.48
28628;BME280;15815;46.760;19.604;2023-04-25T12:48:21;99279.22;;;20.30;48.46
28628;BME280;15815;46.760;19.604;2023-04-25T12:50:48;99291.41;;;20.45;47.56
28628;BME280;15815;46.760;19.604;2023-04-25T12:53:13;99297.59;;;20.44;46.16
28628;BME280;15815;46.760;19.604;2023-04-25T12:55:39;99286.75;;;20.13;47.22